Terminal Aerodrome Forecast
Issued by NWS Dallas/Fort Worth, TX

Current Version | Previous Version | Text Only | Print | Product List | Glossary On
Versions: 1 2 3 4 5 6 7 8 9 10 11 12 13 14 15 16 17 18 19 20 21 22 23 24 25 26 27 28 29 30 31
000
FTUS44 KFWD 260915 AAB
TAFACT
TAF AMD
KACT 260915Z 2609/2706 18005KT P6SM SKC
     FM261000 18006KT 5SM BR SCT005
     FM261100 19007KT 4SM BR BKN006
     FM261400 19006KT 4SM BR BKN010
     FM261500 19010KT P6SM SCT020
     FM262000 17012KT P6SM VCTS BKN080CB
     FM262300 14011KT P6SM VCTS BKN040CB OVC080
      TEMPO 2623/2703 2SM TSRA BKN015CB=

USA.gov is the U.S. government's official web portal to all federal, state and local government web resources and services.